Time;durP1;ratioP1;P1;durP2;ratioP2;P2;SDS_P1;SDS_P2;PMS_P1;PMS_P2;Temp;Humidity;BMP_temperature;BMP_pressure;BME280_temperature;BME280_humidity;BME280_pressure;Samples;Min_cycle;Max_cycle;Signal;HPM_P1;HPM_P2
2024/04/05 00:01:32;;;;;;;12.52;4.40;;;;;;;11.05;58.51;99592.66;4969686;28;20112;-93
2024/04/05 00:03:57;;;;;;;9.57;3.95;;;;;;;11.00;58.56;99570.28;4961024;28;20030;-93
2024/04/05 00:06:23;;;;;;;9.13;4.28;;;;;;;11.23;57.88;99595.94;4967773;28;20036;-93
2024/04/05 00:08:49;;;;;;;6.28;3.85;;;;;;;11.24;57.49;99592.16;4963290;28;20056;-93
2024/04/05 00:11:14;;;;;;;10.48;4.13;;;;;;;11.32;57.18;99584.34;4950849;28;20034;-93
2024/04/05 00:13:43;;;;;;;13.55;4.07;;;;;;;11.31;57.15;99571.97;4950370;28;20416;-92
2024/04/05 00:16:09;;;;;;;10.45;3.88;;;;;;;11.37;56.98;99577.34;4950483;28;20030;-92
2024/04/05 00:18:34;;;;;;;8.85;3.63;;;;;;;11.49;56.74;99589.47;4948780;28;20066;-92
2024/04/05 00:21:04;;;;;;;6.88;3.58;;;;;;;11.53;56.33;99582.47;4965248;28;20054;-93
2024/04/05 00:23:31;;;;;;;6.93;3.67;;;;;;;11.64;56.52;99595.94;4965598;28;20485;-93
2024/04/05 00:26:00;;;;;;;6.50;4.20;;;;;;;11.40;57.69;99574.13;4965461;28;20030;-93
2024/04/05 00:28:27;;;;;;;12.20;3.80;;;;;;;11.31;58.28;99580.03;4966139;28;20034;-93
2024/04/05 00:30:53;;;;;;;8.90;4.65;;;;;;;11.43;58.33;99595.13;4948939;28;20065;-93
2024/04/05 00:33:19;;;;;;;10.65;4.45;;;;;;;11.33;58.91;99604.03;4965718;28;20023;-93
2024/04/05 00:35:48;;;;;;;11.65;3.92;;;;;;;11.16;58.31;99581.91;4966290;28;20014;-93
2024/04/05 00:38:13;;;;;;;5.80;3.65;;;;;;;11.17;58.60;99597.00;4948484;28;20074;-92
2024/04/05 00:40:39;;;;;;;6.85;3.47;;;;;;;11.12;58.58;99595.09;4964801;28;20026;-92
2024/04/05 00:43:04;;;;;;;5.28;3.33;;;;;;;11.04;58.71;99582.97;4980801;28;20026;-91
2024/04/05 00:45:30;;;;;;;6.80;3.15;;;;;;;10.96;59.37;99583.50;4948528;28;20105;-92
2024/04/05 00:47:56;;;;;;;5.63;3.78;;;;;;;10.95;59.56;99586.44;4949626;28;20525;-91
2024/04/05 00:50:21;;;;;;;5.53;3.47;;;;;;;11.05;59.49;99618.81;4964653;28;20114;-93
2024/04/05 00:52:47;;;;;;;9.98;3.30;;;;;;;10.77;60.17;99590.41;4949930;28;20039;-92
2024/04/05 00:55:12;;;;;;;6.75;3.42;;;;;;;10.76;60.49;99603.06;4965423;28;20053;-91
2024/04/05 00:57:38;;;;;;;6.70;3.67;;;;;;;10.61;60.48;99578.78;4949173;28;20029;-92
2024/04/05 01:00:04;;;;;;;9.13;4.00;;;;;;;10.65;60.51;99593.34;4964230;28;20057;-92
2024/04/05 01:02:30;;;;;;;7.38;3.72;;;;;;;10.77;60.74;99607.41;4948583;28;20077;-92
2024/04/05 01:04:56;;;;;;;7.47;3.63;;;;;;;10.72;60.89;99607.38;4964613;28;20026;-93
2024/04/05 01:07:21;;;;;;;6.50;3.70;;;;;;;10.57;61.51;99597.34;4965813;28;20030;-93
2024/04/05 01:09:47;;;;;;;8.10;4.10;;;;;;;10.56;61.45;99606.47;4946760;28;20081;-91
2024/04/05 01:12:13;;;;;;;7.40;4.50;;;;;;;10.47;61.57;99605.38;4948170;28;20109;-91
2024/04/05 01:14:38;;;;;;;10.48;3.80;;;;;;;10.46;61.50;99609.16;4947206;28;20023;-92
2024/04/05 01:17:04;;;;;;;9.68;4.05;;;;;;;10.44;61.76;99612.09;4947152;28;20460;-91
2024/04/05 01:19:30;;;;;;;6.97;3.90;;;;;;;10.47;61.94;99629.59;4947465;28;20113;-92
2024/04/05 01:21:56;;;;;;;10.18;4.15;;;;;;;10.46;61.97;99631.50;4946893;28;20027;-92
2024/04/05 01:24:21;;;;;;;7.95;4.22;;;;;;;10.41;62.19;99626.06;4948116;28;20066;-93
2024/04/05 01:26:47;;;;;;;7.20;4.30;;;;;;;10.32;62.05;99612.31;4947742;28;20117;-91
2024/04/05 01:29:12;;;;;;;7.13;4.20;;;;;;;10.44;62.38;99624.75;4946777;28;20472;-92
2024/04/05 01:31:39;;;;;;;14.50;4.07;;;;;;;10.23;62.12;99605.78;4947068;28;20178;-92
2024/04/05 01:34:04;;;;;;;7.22;3.80;;;;;;;10.17;62.01;99608.66;4947177;28;20074;-93
2024/04/05 01:36:32;;;;;;;6.72;3.72;;;;;;;10.37;61.90;99637.63;4947471;28;20620;-92
2024/04/05 01:38:58;;;;;;;11.25;3.40;;;;;;;10.23;61.61;99621.91;4946660;28;20057;-92
2024/04/05 01:41:26;;;;;;;6.13;3.40;;;;;;;10.33;61.21;99626.56;4947389;28;20022;-92
2024/04/05 01:43:55;;;;;;;7.65;3.45;;;;;;;10.35;61.63;99627.09;4948621;28;20040;-93
2024/04/05 01:46:21;;;;;;;5.68;3.58;;;;;;;10.41;61.05;99631.44;4947960;28;20432;-92
2024/04/05 01:48:46;;;;;;;6.07;3.63;;;;;;;10.28;61.35;99613.84;4978957;28;20050;-93
2024/04/05 01:51:12;;;;;;;8.10;3.25;;;;;;;10.44;60.96;99622.88;4947179;28;20124;-91
2024/04/05 01:53:38;;;;;;;5.68;3.42;;;;;;;10.47;60.98;99625.03;4964263;28;20023;-92
2024/04/05 01:56:04;;;;;;;6.50;3.40;;;;;;;10.58;60.27;99625.88;4963040;28;20030;-92
2024/04/05 01:58:30;;;;;;;11.50;3.60;;;;;;;10.61;59.73;99620.00;4946857;28;20033;-93
2024/04/05 02:01:00;;;;;;;5.32;3.10;;;;;;;10.74;59.88;99636.75;4947194;28;20026;-92
2024/04/05 02:03:26;;;;;;;9.95;3.60;;;;;;;10.65;60.36;99637.25;4964269;28;20025;-93
2024/04/05 02:05:54;;;;;;;7.30;3.67;;;;;;;10.56;60.64;99641.50;4962811;28;20026;-93
2024/04/05 02:08:20;;;;;;;6.10;2.92;;;;;;;10.39;60.97;99625.53;4946251;28;20170;-93
2024/04/05 02:10:45;;;;;;;3.65;3.05;;;;;;;10.44;60.69;99635.53;4962838;28;20131;-93
2024/04/05 02:13:11;;;;;;;6.75;2.95;;;;;;;10.54;61.10;99651.72;4947129;28;20489;-92
2024/04/05 02:15:37;;;;;;;6.10;3.25;;;;;;;10.46;61.08;99646.84;4962302;28;20069;-92
2024/04/05 02:18:04;;;;;;;7.15;2.97;;;;;;;10.48;61.11;99652.78;4946912;28;20385;-91
2024/04/05 02:20:29;;;;;;;5.55;2.97;;;;;;;10.48;60.32;99631.25;4979126;28;20067;-92
2024/04/05 02:22:55;;;;;;;4.43;2.97;;;;;;;10.47;60.20;99630.41;4963362;28;20054;-93
2024/04/05 02:25:21;;;;;;;3.65;2.67;;;;;;;10.51;59.85;99630.69;4963861;28;20026;-92
2024/04/05 02:27:47;;;;;;;5.65;2.80;;;;;;;10.66;59.54;99644.22;4962620;28;20424;-93
2024/04/05 02:30:14;;;;;;;4.80;2.72;;;;;;;10.78;59.29;99657.50;4963144;28;20050;-92
2024/04/05 02:32:40;;;;;;;8.60;2.88;;;;;;;10.83;59.13;99651.31;4963494;28;20030;-92
2024/04/05 02:35:06;;;;;;;4.43;2.95;;;;;;;10.77;59.12;99638.91;4946912;28;20057;-92
2024/04/05 02:37:31;;;;;;;6.88;3.50;;;;;;;10.78;58.81;99643.22;4946694;28;20129;-92
2024/04/05 02:39:58;;;;;;;3.78;2.55;;;;;;;10.86;58.58;99646.22;4962544;28;20530;-93
2024/04/05 02:42:23;;;;;;;6.55;2.80;;;;;;;10.89;58.77;99643.00;4947175;28;20062;-93
2024/04/05 02:44:49;;;;;;;4.28;2.75;;;;;;;10.80;58.80;99630.31;4962649;28;20058;-92
2024/04/05 02:47:14;;;;;;;10.80;3.10;;;;;;;10.90;59.69;99668.06;4962579;28;20038;-93
2024/04/05 02:49:40;;;;;;;4.80;3.08;;;;;;;10.60;60.09;99633.69;4946597;28;20030;-93
2024/04/05 02:52:06;;;;;;;12.50;3.47;;;;;;;10.71;60.47;99662.31;4949455;28;20022;-92
2024/04/05 02:54:32;;;;;;;15.07;3.63;;;;;;;10.56;60.52;99660.34;4951234;28;20130;-93
2024/04/05 02:56:57;;;;;;;8.05;2.78;;;;;;;10.58;60.49;99657.38;4970773;28;20033;-93
2024/04/05 02:59:23;;;;;;;10.35;3.05;;;;;;;10.54;60.78;99658.97;4955676;28;20476;-93
2024/04/05 03:01:49;;;;;;;9.57;2.72;;;;;;;10.61;60.40;99670.34;4974884;28;20034;-94
2024/04/05 03:04:14;;;;;;;10.50;2.63;;;;;;;10.58;60.48;99650.13;4953050;28;20053;-93
2024/04/05 03:06:40;;;;;;;9.57;2.90;;;;;;;10.58;61.28;99668.97;4950267;28;20077;-92
2024/04/05 03:09:06;;;;;;;7.45;3.22;;;;;;;10.48;61.94;99679.69;4950986;28;20109;-92
2024/04/05 03:11:31;;;;;;;10.38;3.20;;;;;;;10.35;62.35;99664.78;4950104;28;20053;-92
2024/04/05 03:13:57;;;;;;;7.32;2.95;;;;;;;10.36;62.31;99674.50;4963953;28;20112;-92
2024/04/05 03:16:22;;;;;;;7.40;3.20;;;;;;;10.36;62.58;99679.88;4971012;28;20038;-92
2024/04/05 03:18:48;;;;;;;16.00;3.13;;;;;;;10.20;62.52;99656.59;4965263;28;20026;-94
2024/04/05 03:21:14;;;;;;;10.07;3.78;;;;;;;10.23;62.69;99673.03;4955768;28;20027;-90
2024/04/05 03:23:39;;;;;;;9.98;3.38;;;;;;;10.17;62.76;99674.09;4980203;28;20684;-92
2024/04/05 03:26:05;;;;;;;10.70;3.20;;;;;;;10.22;62.71;99670.59;4953325;28;20030;-92
2024/04/05 03:28:30;;;;;;;13.15;3.78;;;;;;;10.15;62.79;99678.06;4949547;28;20026;-93
2024/04/05 03:30:56;;;;;;;11.32;3.55;;;;;;;10.14;62.96;99674.59;4949395;28;20500;-92
2024/04/05 03:33:22;;;;;;;21.40;4.07;;;;;;;10.15;63.63;99686.97;4950884;28;20378;-92
2024/04/05 03:35:47;;;;;;;15.07;3.50;;;;;;;10.09;63.51;99679.94;4950032;28;20034;-93
2024/04/05 03:38:14;;;;;;;9.93;3.50;;;;;;;9.97;63.63;99671.22;4965315;28;20145;-92
2024/04/05 03:40:39;;;;;;;7.28;4.00;;;;;;;10.02;63.87;99698.16;4949746;28;20026;-92
2024/04/05 03:43:08;;;;;;;11.52;3.63;;;;;;;9.92;64.13;99696.22;4949734;28;20030;-92
2024/04/05 03:45:34;;;;;;;16.73;4.05;;;;;;;9.81;64.16;99691.81;4949719;28;20532;-91
2024/04/05 03:47:59;;;;;;;8.38;3.90;;;;;;;9.76;64.50;99694.47;4949648;28;20054;-92
2024/04/05 03:50:25;;;;;;;9.90;3.72;;;;;;;9.79;64.41;99700.13;4949626;28;20034;-91
2024/04/05 03:52:51;;;;;;;11.95;3.47;;;;;;;9.61;64.69;99684.38;4949337;28;20097;-92
2024/04/05 03:55:17;;;;;;;8.68;3.08;;;;;;;9.80;64.25;99712.50;4965900;28;20054;-96
2024/04/05 03:57:52;;;;;;;16.05;4.88;;;;;;;9.73;64.14;99695.75;4966697;28;20026;-96
2024/04/05 04:00:18;;;;;;;19.05;5.38;;;;;;;9.87;64.99;99729.22;4978305;28;20035;-93
2024/04/05 04:02:44;;;;;;;25.25;6.00;;;;;;;9.70;64.37;99707.84;4950312;28;20481;-92
2024/04/05 04:05:10;;;;;;;7.88;4.38;;;;;;;9.70;64.51;99709.72;4961221;28;20030;-92
2024/04/05 04:07:35;;;;;;;9.68;4.95;;;;;;;9.62;64.81;99707.50;4965812;28;20109;-92
2024/04/05 04:10:01;;;;;;;7.63;4.13;;;;;;;9.61;64.80;99720.13;4981650;28;20030;-93
2024/04/05 04:12:28;;;;;;;10.88;4.50;;;;;;;9.73;65.06;99736.09;4982086;28;20026;-91
2024/04/05 04:14:56;;;;;;;11.07;4.68;;;;;;;9.69;64.62;99708.09;4964536;28;20037;-92
2024/04/05 04:17:22;;;;;;;8.57;5.25;;;;;;;9.75;64.43;99725.09;4981324;28;20014;-91
2024/04/05 04:19:47;;;;;;;9.40;4.20;;;;;;;9.81;64.61;99732.94;4982346;28;20070;-96
2024/04/05 04:22:13;;;;;;;8.55;4.20;;;;;;;9.86;64.47;99742.97;4965783;28;20026;-96
2024/04/05 04:24:40;;;;;;;10.50;3.90;;;;;;;9.98;64.10;99756.22;4966043;28;20040;-95
2024/04/05 04:27:07;;;;;;;13.98;4.72;;;;;;;9.80;64.40;99730.53;4982746;28;20093;-95
2024/04/05 04:29:35;;;;;;;17.75;4.47;;;;;;;9.98;64.24;99759.75;4969498;28;20052;-95
2024/04/05 04:32:03;;;;;;;13.55;4.72;;;;;;;9.79;64.19;99724.31;4966683;28;20029;-95
2024/04/05 04:34:29;;;;;;;12.60;4.80;;;;;;;9.98;63.90;99729.31;4950397;28;20026;-94
2024/04/05 04:36:54;;;;;;;15.07;5.57;;;;;;;10.05;63.70;99743.41;4965012;28;20503;-95
2024/04/05 04:39:20;;;;;;;11.50;4.63;;;;;;;9.96;64.39;99750.28;4966224;28;20185;-95
2024/04/05 04:41:46;;;;;;;13.10;4.30;;;;;;;9.84;64.41;99739.72;4961245;28;20072;-95
2024/04/05 04:44:11;;;;;;;15.57;4.65;;;;;;;10.16;64.05;99781.97;4978698;28;20100;-96
2024/04/05 04:46:44;;;;;;;16.77;4.82;;;;;;;10.10;64.66;99778.41;4969347;28;20034;-94
2024/04/05 04:49:10;;;;;;;;;;;;;;;10.09;64.31;99780.28;4960366;28;20041;-93
2024/04/05 04:51:38;;;;;;;16.08;5.88;;;;;;;9.99;64.73;99766.75;4986209;28;19964;-94
2024/04/05 04:54:04;;;;;;;12.00;7.15;;;;;;;9.95;64.32;99770.19;4970605;28;20030;-95
2024/04/05 04:56:31;;;;;;;17.00;4.78;;;;;;;9.97;64.25;99770.75;4969561;28;20033;-93
2024/04/05 04:59:12;;;;;;;8.35;5.10;;;;;;;10.28;63.39;99798.75;4970630;28;20049;-95
2024/04/05 05:01:49;;;;;;;13.27;6.45;;;;;;;10.07;63.90;99771.66;4973473;28;20032;-95
2024/04/05 05:04:15;;;;;;;16.85;6.85;;;;;;;10.09;63.62;99779.47;4970158;28;20046;-96
2024/04/05 05:06:40;;;;;;;15.15;6.78;;;;;;;10.21;64.06;99795.44;4968550;28;20041;-95
2024/04/05 05:09:08;;;;;;;35.25;7.45;;;;;;;10.12;63.86;99787.03;4968118;28;20455;-95
2024/04/05 05:11:35;;;;;;;20.02;6.50;;;;;;;10.27;63.84;99794.44;4985834;28;20033;-94
2024/04/05 05:14:01;;;;;;;16.35;6.57;;;;;;;10.27;63.33;99787.19;4984268;28;20105;-95
2024/04/05 05:16:26;;;;;;;13.77;7.10;;;;;;;10.44;63.18;99780.91;4969157;28;20025;-96
2024/04/05 05:19:11;;;;;;;;;;;;;;;;;;;;;
2024/04/05 05:21:59;;;;;;;15.77;6.28;;;;;;;10.79;62.05;99782.19;5017714;28;20054;-96
2024/04/05 05:24:40;;;;;;;28.60;15.35;;;;;;;10.99;61.26;99798.50;5100520;23;20083;-96
2024/04/05 05:27:15;;;;;;;9.73;6.30;;;;;;;11.10;61.29;99792.09;5012286;28;20036;-94
2024/04/05 05:29:55;;;;;;;18.45;6.80;;;;;;;11.17;60.60;99786.47;5000114;28;20101;-96
2024/04/05 05:32:21;;;;;;;16.95;7.32;;;;;;;11.43;60.56;99800.84;4999955;28;20025;-95
2024/04/05 05:42:01;;;;;;;6.50;4.00;;;;;;;11.84;57.86;99800.19;5009255;28;20131;-96
2024/04/05 05:45:21;;;;;;;;;;;;;;;;;;;;;
2024/04/05 05:47:57;;;;;;;10.07;4.72;;;;;;;12.22;57.54;99800.81;5048208;28;20116;-96
2024/04/05 05:53:44;;;;;;;11.63;4.80;;;;;;;12.69;55.75;99840.28;922131;22;20328;-94
2024/04/05 05:56:15;;;;;;;14.43;8.07;;;;;;;12.56;55.44;99803.81;4985524;28;20054;-95
2024/04/05 05:58:44;;;;;;;19.17;7.22;;;;;;;12.87;54.97;99830.81;4954151;28;20030;-96
2024/04/05 06:01:11;;;;;;;15.13;8.55;;;;;;;12.78;54.79;99797.31;4950493;28;20026;-94
2024/04/05 06:03:39;;;;;;;11.70;6.32;;;;;;;12.89;54.55;99798.94;4948502;28;20109;-94
2024/04/05 06:06:08;;;;;;;15.77;8.60;;;;;;;13.05;54.65;99808.63;4948860;28;20031;-94
2024/04/05 06:08:56;;;;;;;13.60;5.57;;;;;;;13.37;53.98;99831.00;4953414;28;20533;-96
2024/04/05 06:11:43;;;;;;;14.15;6.00;;;;;;;13.40;53.64;99815.00;5002590;28;20507;-96
2024/04/05 06:14:11;;;;;;;10.15;5.82;;;;;;;13.54;53.05;99807.94;4974170;28;20073;-95
2024/04/05 06:16:37;;;;;;;8.95;5.85;;;;;;;13.70;52.28;99813.28;4976697;28;20488;-93
2024/04/05 06:19:02;;;;;;;9.70;5.25;;;;;;;13.70;51.96;99805.97;4960004;28;20102;-93
2024/04/05 06:21:28;;;;;;;10.38;4.68;;;;;;;13.95;51.77;99829.38;4961123;28;20089;-93
2024/04/05 06:23:58;;;;;;;15.05;4.80;;;;;;;13.91;52.13;99830.22;4972405;28;20076;-92
2024/04/05 06:26:27;;;;;;;8.52;4.10;;;;;;;13.97;51.81;99820.19;4960543;28;20513;-95
2024/04/05 06:28:53;;;;;;;11.55;4.25;;;;;;;14.01;51.62;99829.34;4985091;28;20025;-94
2024/04/05 06:32:11;;;;;;;10.55;6.20;;;;;;;14.09;51.75;99823.34;4973519;28;20030;-95
2024/04/05 06:34:43;;;;;;;11.73;4.47;;;;;;;14.27;51.83;99828.09;4932861;28;20199;-94
2024/04/05 06:37:38;;;;;;;9.13;6.10;;;;;;;14.53;51.42;99846.88;4968825;28;20489;-96
2024/04/05 06:40:08;;;;;;;13.43;4.03;;;;;;;14.57;51.07;99842.56;4989185;28;20030;-95
2024/04/05 06:43:16;;;;;;;8.15;4.10;;;;;;;14.70;50.70;99825.63;4970786;28;20030;-96
2024/04/05 06:46:10;;;;;;;7.93;3.50;;;;;;;15.06;50.12;99849.69;4987341;28;20503;-95
2024/04/05 06:52:29;;;;;;;6.80;3.50;;;;;;;15.23;49.47;99840.28;4949526;29;20056;-95
2024/04/05 06:58:12;;;;;;;9.10;3.63;;;;;;;15.55;48.88;99856.75;4981243;28;19917;-94
2024/04/05 07:00:39;;;;;;;11.25;3.53;;;;;;;15.60;49.02;99849.66;4944297;28;20071;-93
2024/04/05 07:06:43;;;;;;;5.97;3.55;;;;;;;15.97;47.82;99859.78;4894219;29;20075;-94
2024/04/05 07:09:41;;;;;;;7.65;3.47;;;;;;;15.91;48.14;99850.09;4947498;29;20067;-94
2024/04/05 07:12:43;;;;;;;8.18;3.28;;;;;;;15.95;47.67;99835.63;4958658;29;20047;-95
2024/04/05 07:16:03;;;;;;;;;;;;;;;;;;;;;
2024/04/05 07:18:52;;;;;;;4.88;2.50;;;;;;;16.30;47.12;99840.88;4962040;28;20098;-93
2024/04/05 07:21:55;;;;;;;7.30;2.60;;;;;;;16.33;47.25;99842.97;4936518;29;20058;-96
2024/04/05 07:25:08;;;;;;;6.53;2.83;;;;;;;16.51;47.32;99861.19;4962078;28;20039;-93
2024/04/05 07:30:29;;;;;;;4.70;1.90;;;;;;;16.69;46.92;99847.88;4914135;29;20048;-93
2024/04/05 07:32:57;;;;;;;3.40;1.40;;;;;;;16.77;46.57;99842.56;4913891;29;20130;-93
2024/04/05 07:36:06;;;;;;;1.42;1.10;;;;;;;16.87;45.35;99838.88;4932484;29;20051;-95
2024/04/05 07:38:58;;;;;;;3.10;0.80;;;;;;;17.25;44.93;99879.56;4914095;29;20043;-94
2024/04/05 07:41:27;;;;;;;;;;;;;;;17.40;43.69;99873.00;4925792;29;20126;-93
2024/04/05 08:28:52;;;;;;;1.90;1.00;;;;;;;18.38;40.96;99860.88;4972970;28;20499;-93
2024/04/05 08:31:20;;;;;;;4.85;1.27;;;;;;;18.54;40.83;99866.78;4986827;28;20030;-92
2024/04/05 08:34:07;;;;;;;1.05;0.70;;;;;;;18.54;41.05;99855.88;4957663;28;20039;-94
2024/04/05 08:37:24;;;;;;;;;;;;;;;;;;;;;
2024/04/05 08:40:26;;;;;;;2.45;0.88;;;;;;;18.63;38.94;99859.47;4950922;28;20107;-93
2024/04/05 08:42:52;;;;;;;1.40;0.80;;;;;;;18.35;39.21;99851.41;4946716;28;20047;-92
2024/04/05 08:52:36;;;;;;;1.83;0.65;;;;;;;18.45;38.72;99864.00;4885166;29;20104;-96
2024/04/05 08:55:09;;;;;;;1.23;0.80;;;;;;;18.49;39.49;99869.63;4885028;29;20052;-93
2024/04/05 08:58:12;;;;;;;3.97;0.77;;;;;;;18.42;38.56;99878.25;4969345;28;20049;-90
2024/04/05 09:00:37;;;;;;;;;;;;;;;18.64;38.69;99882.13;4957912;28;20042;-93
2024/04/05 09:03:04;;;;;;;25.00;14.95;;;;;;;18.57;38.30;99860.72;4928460;28;19957;-91
2024/04/05 09:05:32;;;;;;;2.22;1.45;;;;;;;18.56;38.24;99867.28;4967556;28;20042;-95
2024/04/05 09:11:50;;;;;;;1.70;1.00;;;;;;;18.81;38.41;99881.47;4937377;29;20147;-95
2024/04/05 09:20:24;;;;;;;0.70;0.70;;;;;;;18.82;37.51;99853.06;5424159;22;20057;-92
2024/04/05 09:23:50;;;;;;;;;;;;;;;;;;;;;
2024/04/05 09:26:21;;;;;;;1.50;0.95;;;;;;;18.96;37.74;99835.47;4907480;29;20143;-93
2024/04/05 09:29:07;;;;;;;1.80;0.82;;;;;;;19.24;37.96;99861.81;4958585;28;20481;-93
2024/04/05 09:31:36;;;;;;;2.17;0.90;;;;;;;19.24;37.58;99848.16;4996258;28;20076;-91
2024/04/05 09:34:09;;;;;;;1.38;0.77;;;;;;;19.38;37.99;99841.47;4984154;28;20030;-94
2024/04/05 09:36:37;;;;;;;4.60;1.20;;;;;;;19.48;38.12;99854.00;4984471;28;20080;-93
2024/04/05 09:39:09;;;;;;;2.60;0.77;;;;;;;19.46;36.98;99834.41;4984221;28;20488;-93
2024/04/05 09:41:56;;;;;;;2.58;1.27;;;;;;;19.77;36.37;99849.94;4984534;28;20030;-93
2024/04/05 09:44:40;;;;;;;;;;;;;;;;;;;;;
2024/04/05 09:47:29;;;;;;;1.77;0.90;;;;;;;19.97;35.58;99832.16;5002573;28;20102;-95
2024/04/05 09:50:08;;;;;;;1.58;1.00;;;;;;;19.97;34.82;99846.59;4985582;28;20530;-94
2024/04/05 09:52:40;;;;;;;1.17;0.50;;;;;;;20.04;34.94;99845.31;4983220;28;20034;-93
2024/04/05 09:55:08;;;;;;;5.32;0.90;;;;;;;20.07;35.37;99845.50;4968039;28;20032;-94
2024/04/05 09:57:34;;;;;;;3.65;0.82;;;;;;;20.10;34.98;99844.06;4966891;28;20025;-92
2024/04/05 10:00:19;;;;;;;2.42;0.90;;;;;;;20.03;35.22;99847.25;4999791;28;20032;-94
2024/04/05 10:11:12;;;;;;;3.95;1.20;;;;;;;19.83;36.49;99840.47;5034744;28;20041;-91
2024/04/05 10:13:43;;;;;;;2.90;1.35;;;;;;;19.90;36.99;99829.88;4997947;28;20202;-92
2024/04/05 10:19:39;;;;;;;1.80;0.88;;;;;;;20.13;36.28;99865.25;4945265;29;20031;-91
2024/04/05 10:22:18;;;;;;;1.75;1.00;;;;;;;20.23;35.99;99837.59;4988721;28;20066;-94
2024/04/05 10:24:44;;;;;;;2.33;1.17;;;;;;;20.41;35.77;99845.81;4949757;28;20033;-93
2024/04/05 10:27:28;;;;;;;7.10;1.08;;;;;;;20.59;35.26;99840.03;4970229;28;20097;-93
2024/04/05 10:30:01;;;;;;;2.03;0.70;;;;;;;20.64;34.04;99833.59;5007933;28;20042;-93
2024/04/05 10:33:46;;;;;;;;;;;;;;;;;;;;;
2024/04/05 10:36:13;;;;;;;5.57;2.70;;;;;;;20.73;35.03;99837.13;5000868;28;20101;-93
2024/04/05 10:38:43;;;;;;;1.52;0.93;;;;;;;20.86;35.35;99829.06;4984026;28;20057;-93
2024/04/05 10:41:20;;;;;;;1.63;0.80;;;;;;;20.78;35.59;99838.88;4999606;28;20037;-91
2024/04/05 10:44:11;;;;;;;1.58;0.70;;;;;;;20.65;35.08;99856.28;5003716;28;20057;-94
2024/04/05 10:46:46;;;;;;;1.50;0.77;;;;;;;20.44;35.43;99829.59;5034381;28;20038;-94
2024/04/05 10:49:43;;;;;;;2.20;0.80;;;;;;;20.43;34.85;99816.22;4987693;28;20025;-92
2024/04/05 10:52:14;;;;;;;1.13;0.70;;;;;;;20.57;35.08;99830.53;4976621;28;20043;-92
2024/04/05 10:54:45;;;;;;;0.85;0.57;;;;;;;20.63;34.41;99840.22;4960584;28;20115;-93
2024/04/05 10:57:11;;;;;;;3.13;0.95;;;;;;;20.58;35.11;99832.94;4928380;28;20023;-93
2024/04/05 10:59:39;;;;;;;1.23;0.50;;;;;;;20.54;33.58;99834.72;4928607;28;20035;-93
2024/04/05 11:02:14;;;;;;;2.28;0.70;;;;;;;20.31;35.17;99828.59;4943879;28;20154;-92
2024/04/05 11:04:40;;;;;;;2.10;0.82;;;;;;;20.24;35.76;99817.34;4927937;28;20109;-95
2024/04/05 11:07:27;;;;;;;1.13;0.70;;;;;;;20.17;36.15;99820.56;4922308;29;20050;-94
2024/04/05 11:09:55;;;;;;;1.85;0.50;;;;;;;20.22;36.06;99825.06;4920014;28;20051;-94
2024/04/05 11:12:41;;;;;;;1.23;0.65;;;;;;;20.40;35.76;99820.41;4930038;28;20232;-93
2024/04/05 11:15:07;;;;;;;2.80;0.60;;;;;;;20.48;36.33;99821.50;4976771;28;20536;-92
2024/04/05 11:17:37;;;;;;;2.65;0.85;;;;;;;20.53;35.49;99824.09;4963499;28;20062;-93
2024/04/05 11:20:11;;;;;;;3.60;0.70;;;;;;;20.67;33.59;99824.75;4948748;28;20027;-94
2024/04/05 11:22:40;;;;;;;1.20;0.73;;;;;;;20.61;33.69;99798.69;4967543;28;20034;-94
2024/04/05 11:25:07;;;;;;;5.80;0.70;;;;;;;20.81;33.78;99819.06;5002425;28;20030;-92
2024/04/05 11:27:33;;;;;;;5.13;0.90;;;;;;;20.67;33.76;99807.50;4985966;28;20492;-92
2024/04/05 11:30:03;;;;;;;8.88;1.40;;;;;;;20.59;32.41;99809.16;5023094;28;20080;-96
2024/04/05 11:32:57;;;;;;;1.52;0.70;;;;;;;20.80;32.88;99836.63;4976194;28;20495;-96
2024/04/05 11:35:22;;;;;;;2.05;0.40;;;;;;;20.82;31.70;99828.91;4991429;28;20038;-95
2024/04/05 11:38:19;;;;;;;0.90;0.50;;;;;;;20.79;30.68;99815.84;4975518;28;20041;-96
2024/04/05 11:41:08;;;;;;;0.70;0.40;;;;;;;20.86;30.16;99815.38;5004752;28;20104;-96
2024/04/05 11:44:02;;;;;;;1.42;0.52;;;;;;;20.71;30.83;99805.72;5009406;28;20018;-96
2024/04/05 11:46:38;;;;;;;1.60;0.80;;;;;;;20.61;30.88;99817.84;4994573;28;20030;-96
2024/04/05 11:49:05;;;;;;;0.57;0.50;;;;;;;20.67;30.75;99818.44;4983065;28;20030;-96
2024/04/05 11:51:44;;;;;;;4.25;0.75;;;;;;;20.74;31.60;99830.50;5011555;28;20041;-96
2024/04/05 11:54:11;;;;;;;0.90;0.50;;;;;;;20.61;31.37;99808.81;4979699;28;20149;-96
2024/04/05 11:59:26;;;;;;;2.30;0.80;;;;;;;20.48;31.68;99805.94;5005905;28;20025;-91
2024/04/05 12:03:08;;;;;;;1.08;0.50;;;;;;;20.43;31.98;99792.41;5007612;28;20479;-92
2024/04/05 12:05:34;;;;;;;3.53;1.50;;;;;;;20.52;32.57;99811.53;4942039;28;20042;-93
2024/04/05 12:14:59;;;;;;;10.43;0.77;;;;;;;20.34;32.21;99776.00;4891701;29;20104;-93
2024/04/05 12:21:16;;;;;;;0.63;0.43;;;;;;;20.52;31.99;99784.19;4856098;29;20132;-96
2024/04/05 12:23:42;;;;;;;2.28;0.60;;;;;;;20.47;32.09;99776.94;4892983;29;20098;-94
2024/04/05 12:26:09;;;;;;;2.47;0.88;;;;;;;20.60;32.36;99777.91;4943852;29;20078;-94
2024/04/05 12:28:45;;;;;;;0.40;0.40;;;;;;;20.64;32.01;99764.38;4953763;28;20034;-93
2024/04/05 12:31:16;;;;;;;1.83;0.50;;;;;;;20.82;32.07;99770.63;4968508;28;20034;-93
2024/04/05 12:33:43;;;;;;;1.70;0.57;;;;;;;20.89;31.93;99790.06;4964387;28;20115;-92
2024/04/05 12:36:09;;;;;;;2.15;0.65;;;;;;;20.78;31.81;99779.47;4968381;28;20602;-92
2024/04/05 12:38:56;;;;;;;3.15;0.75;;;;;;;20.70;31.86;99763.88;4955836;28;20037;-93
2024/04/05 12:41:24;;;;;;;0.68;0.45;;;;;;;20.58;32.51;99755.53;4948206;28;20038;-95
2024/04/05 12:43:49;;;;;;;2.47;1.50;;;;;;;20.54;32.71;99744.44;4952097;28;20512;-93
2024/04/05 12:46:30;;;;;;;0.82;0.65;;;;;;;20.76;32.50;99770.78;4945219;28;20043;-92
2024/04/05 12:48:59;;;;;;;0.63;0.50;;;;;;;20.65;31.68;99752.31;4962430;28;20037;-92
2024/04/05 12:51:25;;;;;;;1.25;0.75;;;;;;;20.78;31.68;99756.78;4976081;28;20061;-96
2024/04/05 12:53:54;;;;;;;2.05;0.68;;;;;;;20.74;31.39;99740.22;4979521;28;20058;-93
2024/04/05 12:56:20;;;;;;;0.82;0.40;;;;;;;20.81;31.28;99747.09;4978828;28;20076;-92
2024/04/05 12:58:53;;;;;;;1.90;0.85;;;;;;;20.71;31.32;99734.56;4960625;28;20074;-89
2024/04/05 13:01:22;;;;;;;1.20;0.60;;;;;;;20.74;31.44;99751.16;4977868;28;20034;-91
2024/04/05 13:03:53;;;;;;;1.83;1.00;;;;;;;20.79;31.36;99744.69;4945248;28;20037;-92
2024/04/05 13:06:26;;;;;;;2.58;0.60;;;;;;;20.70;30.73;99732.97;4944758;28;20426;-93
2024/04/05 13:09:12;;;;;;;4.68;0.60;;;;;;;20.92;30.34;99764.78;4946235;28;20031;-91
2024/04/05 13:19:05;;;;;;;;;;;;;;;;;;;;;
2024/04/05 13:21:58;;;;;;;2.28;0.50;;;;;;;20.82;31.07;99741.31;5700334;23;20045;-95
2024/04/05 13:24:26;;;;;;;1.98;0.60;;;;;;;20.96;30.63;99749.31;5037319;28;20436;-95
2024/04/05 13:26:58;;;;;;;1.23;0.82;;;;;;;20.76;30.85;99751.63;4988003;28;20081;-93
2024/04/05 13:29:23;;;;;;;;;;;;;;;20.99;31.34;99759.59;4984958;28;20042;-93
2024/04/05 13:31:54;;;;;;;3.20;0.82;;;;;;;20.91;30.92;99741.28;5008771;28;19956;-96
2024/04/05 13:39:57;;;;;;;1.58;0.68;;;;;;;21.34;30.67;99754.75;5065866;23;20085;-96
2024/04/05 13:42:27;;;;;;;2.30;0.47;;;;;;;21.30;30.56;99729.16;4987011;28;20100;-96
2024/04/05 13:44:53;;;;;;;2.28;0.68;;;;;;;21.44;29.65;99747.31;5003298;28;20033;-92
2024/04/05 13:47:45;;;;;;;4.13;0.50;;;;;;;21.40;30.16;99717.00;4987345;28;20018;-92
2024/04/05 13:50:16;;;;;;;1.50;0.60;;;;;;;21.39;29.97;99726.34;5004208;28;20123;-93
2024/04/05 13:52:41;;;;;;;0.60;0.40;;;;;;;21.53;29.74;99724.19;4986902;28;20032;-91
2024/04/05 13:55:07;;;;;;;0.98;0.50;;;;;;;21.69;29.46;99724.41;4986059;28;20061;-94
2024/04/05 13:57:35;;;;;;;0.95;0.60;;;;;;;21.61;30.67;99721.75;5002678;28;20057;-93
2024/04/05 14:00:01;;;;;;;1.38;0.50;;;;;;;21.64;30.51;99721.84;5001662;28;20033;-93
2024/04/05 14:02:31;;;;;;;5.78;1.73;;;;;;;21.69;31.24;99726.34;4985117;28;20029;-93
2024/04/05 14:05:00;;;;;;;2.85;0.60;;;;;;;21.65;30.95;99725.41;5002659;28;20018;-93
2024/04/05 14:07:27;;;;;;;5.80;0.98;;;;;;;21.72;30.99;99722.94;5002284;28;20029;-92
2024/04/05 14:09:55;;;;;;;3.95;0.60;;;;;;;21.83;30.71;99723.31;4985731;28;20087;-93
2024/04/05 14:15:07;;;;;;;6.80;1.75;;;;;;;21.95;31.03;99721.44;5017759;28;20511;-93